createdAt,value
2022-11-01T00:02:16.526Z,9.50
2022-11-01T00:04:44.371Z,9.50
2022-11-01T00:07:12.375Z,9.60
2022-11-01T00:09:40.137Z,9.50
2022-11-01T00:12:08.434Z,9.50
2022-11-01T00:14:36.372Z,9.50
2022-11-01T00:17:04.666Z,9.50
2022-11-01T00:19:32.816Z,9.50
2022-11-01T00:22:01.029Z,9.50
2022-11-01T00:24:31.700Z,9.60
2022-11-01T00:27:00.313Z,9.50
2022-11-01T00:29:28.222Z,9.60
2022-11-01T00:31:56.297Z,9.60
2022-11-01T00:34:24.110Z,9.60
2022-11-01T00:36:52.310Z,9.60
2022-11-01T00:39:20.312Z,9.60
2022-11-01T00:41:48.597Z,9.70
2022-11-01T00:44:16.418Z,9.70
2022-11-01T00:46:44.414Z,9.70
2022-11-01T00:49:12.727Z,9.70
2022-11-01T00:51:40.848Z,9.70
2022-11-01T00:54:08.790Z,9.70
2022-11-01T00:56:36.913Z,9.70
2022-11-01T00:59:04.969Z,9.70
2022-11-01T01:01:33.267Z,9.70
2022-11-01T01:04:01.386Z,9.70
2022-11-01T01:06:29.477Z,9.70
2022-11-01T01:09:01.329Z,9.70
2022-11-01T01:11:29.629Z,9.70
2022-11-01T01:13:57.382Z,9.80
2022-11-01T01:16:25.368Z,9.80
2022-11-01T01:18:53.309Z,9.80
2022-11-01T01:21:23.739Z,9.80
2022-11-01T01:23:51.798Z,9.80
2022-11-01T01:26:19.806Z,9.80
2022-11-01T01:28:47.534Z,9.80
2022-11-01T01:31:15.569Z,9.80
2022-11-01T01:33:43.299Z,9.80
2022-11-01T01:36:11.776Z,9.80
2022-11-01T01:38:39.575Z,9.80
2022-11-01T01:41:26.054Z,9.90
2022-11-01T01:43:54.147Z,9.90
2022-11-01T01:46:22.226Z,9.90
2022-11-01T01:48:55.236Z,9.90
2022-11-01T01:51:26.715Z,9.90
2022-11-01T01:53:56.443Z,9.90
2022-11-01T01:56:34.353Z,9.90
2022-11-01T01:59:12.185Z,9.90
2022-11-01T02:01:41.667Z,9.90
2022-11-01T02:04:22.600Z,9.90
2022-11-01T02:06:50.827Z,9.90
2022-11-01T02:09:19.031Z,9.90
2022-11-01T02:11:47.495Z,9.90
2022-11-01T02:14:17.033Z,9.90
2022-11-01T02:17:03.310Z,9.90
2022-11-01T02:20:03.639Z,9.90
2022-11-01T02:22:34.988Z,10.00
2022-11-01T02:25:20.799Z,10.00
2022-11-01T02:28:06.867Z,10.00
2022-11-01T02:31:12.197Z,10.00
2022-11-01T02:33:56.825Z,10.00
2022-11-01T02:36:33.150Z,10.00
2022-11-01T02:39:08.335Z,10.00
2022-11-01T02:42:03.137Z,10.00
2022-11-01T02:44:37.423Z,10.00
2022-11-01T02:47:06.765Z,10.10
2022-11-01T02:49:45.252Z,10.10
2022-11-01T02:52:34.201Z,10.10
2022-11-01T02:55:30.072Z,10.10
2022-11-01T02:58:05.940Z,10.10
2022-11-01T03:00:37.461Z,10.10
2022-11-01T03:03:07.975Z,10.20
2022-11-01T03:05:45.249Z,10.20
2022-11-01T03:08:18.598Z,10.20
2022-11-01T03:10:57.337Z,10.20
2022-11-01T03:13:43.992Z,10.20
2022-11-01T03:16:29.057Z,10.20
2022-11-01T03:19:02.797Z,10.20
2022-11-01T03:21:40.700Z,10.30
2022-11-01T03:24:19.792Z,10.30
2022-11-01T03:27:10.694Z,10.30
2022-11-01T03:29:40.281Z,10.30
2022-11-01T03:32:09.257Z,10.30
2022-11-01T03:34:39.617Z,10.30
2022-11-01T03:37:12.910Z,10.30
2022-11-01T03:39:48.808Z,10.30
2022-11-01T03:42:20.553Z,10.30
2022-11-01T03:44:52.753Z,10.30
2022-11-01T03:47:20.920Z,10.40
2022-11-01T03:49:48.637Z,10.40
2022-11-01T03:52:16.692Z,10.40
2022-11-01T03:54:44.423Z,10.40
2022-11-01T03:57:12.540Z,10.40
2022-11-01T03:59:40.374Z,10.40
2022-11-01T04:04:36.032Z,10.40
2022-11-01T04:07:03.992Z,10.40
2022-11-01T04:09:31.679Z,10.40
2022-11-01T04:11:59.642Z,10.50
2022-11-01T04:14:45.756Z,10.40
2022-11-01T04:17:32.142Z,10.40
2022-11-01T04:20:18.286Z,10.40
2022-11-01T04:22:49.484Z,10.40
2022-11-01T04:25:17.688Z,10.40
2022-11-01T04:27:47.738Z,10.40
2022-11-01T04:30:15.483Z,10.40
2022-11-01T04:32:44.868Z,10.40
2022-11-01T04:35:12.792Z,10.40
2022-11-01T04:37:41.215Z,10.40
2022-11-01T04:40:09.555Z,10.40
2022-11-01T04:42:38.734Z,10.40
2022-11-01T04:45:08.768Z,10.40
2022-11-01T04:47:36.853Z,10.40
2022-11-01T04:50:05.092Z,10.40
2022-11-01T04:52:33.514Z,10.50
2022-11-01T04:55:01.581Z,10.50
2022-11-01T04:57:29.631Z,10.50
2022-11-01T04:59:58.298Z,10.50
2022-11-01T05:02:26.428Z,10.50
2022-11-01T05:04:54.140Z,10.50
2022-11-01T05:07:22.216Z,10.50
2022-11-01T05:09:49.984Z,10.50
2022-11-01T05:12:19.428Z,10.40
2022-11-01T05:14:47.055Z,10.50
2022-11-01T05:17:15.063Z,10.50
2022-11-01T05:19:42.774Z,10.50
2022-11-01T05:22:11.209Z,10.50
2022-11-01T05:24:39.049Z,10.50
2022-11-01T05:27:07.135Z,10.50
2022-11-01T05:29:35.260Z,10.50
2022-11-01T05:32:03.719Z,10.50
2022-11-01T05:34:31.378Z,10.50
2022-11-01T05:36:59.463Z,10.60
2022-11-01T05:39:27.172Z,10.60
2022-11-01T05:41:58.233Z,10.50
2022-11-01T05:44:29.852Z,10.60
2022-11-01T05:46:58.053Z,10.50
2022-11-01T05:49:25.917Z,10.60
2022-11-01T05:51:54.125Z,10.60
2022-11-01T05:54:22.012Z,10.60
2022-11-01T05:56:50.046Z,10.60
2022-11-01T05:59:18.134Z,10.60
2022-11-01T06:01:46.510Z,10.60
2022-11-01T06:04:14.538Z,10.60
2022-11-01T06:06:42.838Z,10.60
2022-11-01T06:09:10.611Z,10.60
2022-11-01T06:11:41.644Z,10.60
2022-11-01T06:14:10.759Z,10.70
2022-11-01T06:16:40.209Z,10.70
2022-11-01T06:19:09.025Z,10.70
2022-11-01T06:21:37.336Z,10.70
2022-11-01T06:24:05.357Z,10.70
2022-11-01T06:26:33.427Z,10.70
2022-11-01T06:29:02.399Z,10.70
2022-11-01T06:31:30.940Z,10.70
2022-11-01T06:33:58.687Z,10.70
2022-11-01T06:36:26.735Z,10.70
2022-11-01T06:38:54.549Z,10.80
2022-11-01T06:41:22.511Z,10.80
2022-11-01T06:43:50.431Z,10.80
2022-11-01T06:46:18.563Z,10.80
2022-11-01T06:48:49.151Z,10.90
2022-11-01T06:51:17.151Z,10.80
2022-11-01T06:53:44.871Z,10.90
2022-11-01T06:56:12.904Z,10.90
2022-11-01T06:58:40.584Z,10.90
2022-11-01T07:01:08.617Z,10.90
2022-11-01T07:03:36.394Z,10.90
2022-11-01T07:06:04.704Z,11.00
2022-11-01T07:08:32.517Z,11.00
2022-11-01T07:11:00.792Z,11.00
2022-11-01T07:13:34.037Z,11.10
2022-11-01T07:16:04.616Z,11.10
2022-11-01T07:18:34.734Z,11.10
2022-11-01T07:21:04.423Z,11.10
2022-11-01T07:23:32.227Z,11.20
2022-11-01T07:26:01.012Z,11.20
2022-11-01T07:28:28.890Z,11.20
2022-11-01T07:30:58.427Z,11.20
2022-11-01T07:33:26.352Z,11.30
2022-11-01T07:35:54.575Z,11.30
2022-11-01T07:38:22.435Z,11.30
2022-11-01T07:40:54.880Z,11.30
2022-11-01T07:43:23.355Z,11.40
2022-11-01T07:45:53.735Z,11.40
2022-11-01T07:48:21.689Z,11.40
2022-11-01T07:50:50.251Z,11.50
2022-11-01T07:53:19.470Z,11.50
2022-11-01T07:55:47.831Z,11.50
2022-11-01T07:58:16.748Z,11.60
2022-11-01T08:00:47.907Z,11.60
2022-11-01T08:03:16.941Z,11.60
2022-11-01T08:05:46.790Z,11.60
2022-11-01T08:08:15.738Z,11.60
2022-11-01T08:10:46.917Z,11.60
2022-11-01T08:13:17.820Z,11.70
2022-11-01T08:15:47.278Z,11.70
2022-11-01T08:18:16.502Z,11.70
2022-11-01T08:20:44.586Z,11.70
2022-11-01T08:23:12.970Z,11.70
2022-11-01T08:25:41.185Z,11.70
2022-11-01T08:28:13.066Z,11.70
2022-11-01T08:30:43.342Z,11.70
2022-11-01T08:33:11.728Z,11.70
2022-11-01T08:35:40.006Z,11.80
2022-11-01T08:38:08.865Z,11.80
2022-11-01T08:40:37.079Z,11.80
2022-11-01T08:43:05.627Z,11.80
2022-11-01T08:45:36.443Z,11.80
2022-11-01T08:48:05.474Z,11.90
2022-11-01T08:50:34.679Z,11.90
2022-11-01T08:53:13.615Z,12.00
2022-11-01T08:55:42.198Z,12.00
2022-11-01T08:58:10.154Z,12.10
2022-11-01T09:00:38.343Z,12.10
2022-11-01T09:03:06.712Z,12.10
2022-11-01T09:05:37.414Z,12.10
2022-11-01T09:08:05.924Z,12.20
2022-11-01T09:10:34.358Z,12.20
2022-11-01T09:13:02.894Z,12.20
2022-11-01T09:15:31.210Z,12.20
2022-11-01T09:17:59.325Z,12.30
2022-11-01T09:20:28.526Z,12.30
2022-11-01T09:22:56.243Z,12.30
2022-11-01T09:25:25.081Z,12.30
2022-11-01T09:27:52.816Z,12.30
2022-11-01T09:30:21.836Z,12.30
2022-11-01T09:32:49.700Z,12.40
2022-11-01T09:35:20.845Z,12.40
2022-11-01T09:37:48.828Z,12.30
2022-11-01T09:40:17.021Z,12.40
2022-11-01T09:42:46.191Z,12.40
2022-11-01T09:45:21.858Z,12.40
2022-11-01T09:48:00.747Z,12.40
2022-11-01T09:50:37.004Z,12.40
2022-11-01T09:53:20.622Z,12.40
2022-11-01T09:55:55.483Z,12.40
2022-11-01T09:58:26.294Z,12.40
2022-11-01T10:01:23.280Z,12.40
2022-11-01T10:04:16.652Z,12.40
2022-11-01T10:06:52.434Z,12.40
2022-11-01T10:09:58.090Z,12.40
2022-11-01T10:12:38.261Z,12.50
2022-11-01T10:15:36.165Z,12.50
2022-11-01T10:18:16.411Z,12.50
2022-11-01T10:20:45.224Z,12.50
2022-11-01T10:23:17.133Z,12.50
2022-11-01T10:25:51.678Z,12.50
2022-11-01T10:28:23.951Z,12.50
2022-11-01T10:30:57.151Z,12.50
2022-11-01T10:33:34.186Z,12.50
2022-11-01T10:36:07.939Z,12.50
2022-11-01T10:41:41.229Z,12.40
2022-11-01T10:44:38.774Z,12.40
2022-11-01T10:47:11.635Z,12.30
2022-11-01T10:50:04.667Z,12.30
2022-11-01T10:52:56.457Z,12.30
2022-11-01T10:55:35.705Z,12.30
2022-11-01T10:58:15.387Z,12.30
2022-11-01T11:00:47.144Z,12.30
2022-11-01T11:03:29.869Z,12.30
2022-11-01T11:06:08.790Z,12.40
2022-11-01T11:08:40.955Z,12.40
2022-11-01T11:11:14.593Z,12.40
2022-11-01T11:13:53.287Z,12.40
2022-11-01T11:16:48.387Z,12.40
2022-11-01T11:19:54.629Z,12.30
2022-11-01T11:22:23.948Z,12.20
2022-11-01T11:24:53.068Z,12.20
2022-11-01T11:27:28.466Z,12.20
2022-11-01T11:30:05.722Z,12.20
2022-11-01T11:32:37.247Z,12.20
2022-11-01T11:35:09.094Z,12.20
2022-11-01T11:37:39.743Z,12.20
2022-11-01T11:40:19.635Z,12.20
2022-11-01T11:42:49.350Z,12.30
2022-11-01T11:45:23.359Z,12.30
2022-11-01T11:47:52.221Z,12.30
2022-11-01T11:50:22.933Z,12.20
2022-11-01T11:52:58.229Z,12.10
2022-11-01T11:55:39.902Z,12.10
2022-11-01T11:58:26.117Z,12.00
2022-11-01T12:01:01.202Z,12.00
2022-11-01T12:03:29.599Z,12.00
2022-11-01T12:06:06.419Z,11.90
2022-11-01T12:08:45.791Z,12.00
2022-11-01T12:11:14.657Z,12.10
2022-11-01T12:14:00.378Z,12.00
2022-11-01T12:19:31.084Z,12.00
2022-11-01T12:22:02.655Z,11.90
2022-11-01T12:24:36.688Z,11.80
2022-11-01T12:27:10.472Z,11.80
2022-11-01T12:29:45.273Z,11.80
2022-11-01T12:32:21.083Z,11.80
2022-11-01T12:34:52.596Z,11.70
2022-11-01T12:37:34.436Z,11.70
2022-11-01T12:40:13.730Z,11.70
2022-11-01T12:42:45.483Z,11.70
2022-11-01T12:45:30.179Z,11.70
2022-11-01T12:48:56.522Z,11.70
2022-11-01T12:51:45.730Z,11.80
2022-11-01T12:54:27.627Z,11.70
2022-11-01T12:56:57.088Z,11.70
2022-11-01T12:59:31.948Z,11.70
2022-11-01T13:02:18.722Z,11.70
2022-11-01T13:05:12.047Z,11.60
2022-11-01T13:08:00.037Z,11.60
2022-11-01T13:10:38.733Z,11.60
2022-11-01T13:13:09.838Z,11.60
2022-11-01T13:16:01.770Z,11.50
2022-11-01T13:18:41.975Z,11.50
2022-11-01T13:21:31.713Z,11.40
2022-11-01T13:24:28.094Z,11.50
2022-11-01T13:26:59.499Z,11.50
2022-11-01T13:30:02.834Z,11.50
2022-11-01T13:33:12.768Z,11.50
2022-11-01T13:35:51.228Z,11.50
2022-11-01T13:38:33.555Z,11.50
2022-11-01T13:41:28.350Z,11.40
2022-11-01T13:44:04.123Z,11.40
2022-11-01T13:46:50.568Z,11.40
2022-11-01T13:49:36.012Z,11.40
2022-11-01T13:52:16.466Z,11.50
2022-11-01T13:54:52.734Z,11.50
2022-11-01T13:57:25.084Z,11.40
2022-11-01T13:59:59.760Z,11.40
2022-11-01T14:02:27.980Z,11.40
2022-11-01T14:05:07.211Z,11.30
2022-11-01T14:07:38.693Z,11.30
2022-11-01T14:10:20.065Z,11.20
2022-11-01T14:13:08.856Z,11.30
2022-11-01T14:15:59.457Z,11.30
2022-11-01T14:18:27.744Z,11.30
2022-11-01T14:20:56.886Z,11.30
2022-11-01T14:23:31.901Z,11.30
2022-11-01T14:26:18.611Z,11.30
2022-11-01T14:28:49.138Z,11.30
2022-11-01T14:31:20.035Z,11.30
2022-11-01T14:33:50.043Z,11.30
2022-11-01T14:36:22.957Z,11.20
2022-11-01T14:39:45.085Z,11.20
2022-11-01T14:42:21.256Z,11.20
2022-11-01T14:44:52.882Z,11.20
2022-11-01T14:47:44.045Z,11.20
2022-11-01T14:50:26.456Z,11.20
2022-11-01T14:53:06.999Z,11.30
2022-11-01T14:55:36.931Z,11.30
2022-11-01T14:58:18.751Z,11.30
2022-11-01T15:00:49.441Z,11.30
2022-11-01T15:03:19.219Z,11.30
2022-11-01T15:05:51.036Z,11.30
2022-11-01T15:08:29.682Z,11.30
2022-11-01T15:11:01.756Z,11.30
2022-11-01T15:13:32.574Z,11.30
2022-11-01T15:16:23.344Z,11.30
2022-11-01T15:19:07.174Z,11.30
2022-11-01T15:21:36.174Z,11.30
2022-11-01T15:24:04.282Z,11.30
2022-11-01T15:26:34.185Z,11.30
2022-11-01T15:29:05.305Z,11.30
2022-11-01T15:31:36.010Z,11.30
2022-11-01T15:34:20.965Z,11.30
2022-11-01T15:36:49.420Z,11.30
2022-11-01T15:39:26.776Z,11.20
2022-11-01T15:41:55.981Z,11.20
2022-11-01T15:44:28.329Z,11.20
2022-11-01T15:46:59.945Z,11.10
2022-11-01T15:49:59.166Z,11.10
2022-11-01T15:52:46.188Z,11.10
2022-11-01T15:55:33.970Z,11.10
2022-11-01T15:58:24.257Z,11.10
2022-11-01T16:01:03.419Z,11.10
2022-11-01T16:04:01.327Z,11.10
2022-11-01T16:06:40.552Z,11.10
2022-11-01T16:09:29.563Z,11.00
2022-11-01T16:12:02.843Z,11.10
2022-11-01T16:14:38.446Z,11.10
2022-11-01T16:17:20.882Z,11.10
2022-11-01T16:19:51.457Z,11.10
2022-11-01T16:22:42.446Z,11.10
2022-11-01T16:25:10.389Z,11.10
2022-11-01T16:27:56.306Z,11.10
2022-11-01T16:30:46.515Z,11.10
2022-11-01T16:33:25.902Z,11.10
2022-11-01T16:35:56.913Z,11.10
2022-11-01T16:38:33.533Z,11.10
2022-11-01T16:41:04.733Z,11.10
2022-11-01T16:43:33.137Z,11.10
2022-11-01T16:46:01.693Z,11.20
2022-11-01T16:48:33.316Z,11.10
2022-11-01T16:51:04.979Z,11.10
2022-11-01T16:53:32.815Z,11.10
2022-11-01T16:59:29.247Z,11.20
2022-11-01T17:01:58.958Z,11.20
2022-11-01T17:04:28.353Z,11.20
2022-11-01T17:07:00.278Z,11.20
2022-11-01T17:09:30.995Z,11.20
2022-11-01T17:11:59.427Z,11.20
2022-11-01T17:14:29.693Z,11.20
2022-11-01T17:16:58.228Z,11.20
2022-11-01T17:19:31.237Z,11.20
2022-11-01T17:22:18.098Z,11.20
2022-11-01T17:24:46.382Z,11.20
2022-11-01T17:27:16.100Z,11.20
2022-11-01T17:29:43.888Z,11.20
2022-11-01T17:32:12.739Z,11.30
2022-11-01T17:34:40.736Z,11.20
2022-11-01T17:37:14.723Z,11.30
2022-11-01T17:39:43.149Z,11.30
2022-11-01T17:42:11.768Z,11.30
2022-11-01T17:44:59.714Z,11.30
2022-11-01T17:47:27.789Z,11.30
2022-11-01T17:50:01.360Z,11.30
2022-11-01T17:52:29.401Z,11.30
2022-11-01T17:54:57.259Z,11.30
2022-11-01T17:57:26.198Z,11.30
2022-11-01T17:59:53.865Z,11.30
2022-11-01T18:02:22.149Z,11.30
2022-11-01T18:05:09.587Z,11.30
2022-11-01T18:07:41.349Z,11.30
2022-11-01T18:10:35.249Z,11.30
2022-11-01T18:13:18.445Z,11.30
2022-11-01T18:15:59.075Z,11.30
2022-11-01T18:18:30.504Z,11.30
2022-11-01T18:21:30.693Z,11.30
2022-11-01T18:24:03.151Z,11.30
2022-11-01T18:26:31.263Z,11.30
2022-11-01T18:29:16.212Z,11.40
2022-11-01T18:31:47.769Z,11.30
2022-11-01T18:34:32.422Z,11.30
2022-11-01T18:37:12.336Z,11.40
2022-11-01T18:39:55.931Z,11.30
2022-11-01T18:42:24.730Z,11.30
2022-11-01T18:44:57.997Z,11.40
2022-11-01T18:47:33.250Z,11.40
2022-11-01T18:50:05.710Z,11.40
2022-11-01T18:52:34.063Z,11.30
2022-11-01T18:55:02.212Z,11.40
2022-11-01T18:57:32.448Z,11.30
2022-11-01T19:00:01.106Z,11.40
2022-11-01T19:02:30.835Z,11.40
2022-11-01T19:05:18.060Z,11.40
2022-11-01T19:08:16.538Z,11.40
2022-11-01T19:10:44.746Z,11.40
2022-11-01T19:13:19.015Z,11.40
2022-11-01T19:15:50.293Z,11.40
2022-11-01T19:18:23.802Z,11.40
2022-11-01T19:20:57.453Z,11.40
2022-11-01T19:23:37.943Z,11.40
2022-11-01T19:26:18.309Z,11.40
2022-11-01T19:28:46.021Z,11.40
2022-11-01T19:31:26.333Z,11.40
2022-11-01T19:33:57.316Z,11.40
2022-11-01T19:39:37.583Z,11.40
2022-11-01T19:42:23.269Z,11.40
2022-11-01T19:44:55.170Z,11.40
2022-11-01T19:47:30.292Z,11.40
2022-11-01T19:49:58.436Z,11.40
2022-11-01T19:52:36.348Z,11.40
2022-11-01T19:55:30.181Z,11.40
2022-11-01T19:58:00.004Z,11.40
2022-11-01T20:00:29.486Z,11.40
2022-11-01T20:03:00.352Z,11.40
2022-11-01T20:05:39.153Z,11.40
2022-11-01T20:08:20.594Z,11.40
2022-11-01T20:10:48.333Z,11.30
2022-11-01T20:13:16.316Z,11.30
2022-11-01T20:15:44.531Z,11.30
2022-11-01T20:18:12.617Z,11.40
2022-11-01T20:20:44.176Z,11.30
2022-11-01T20:23:26.001Z,11.30
2022-11-01T20:25:55.423Z,11.30
2022-11-01T20:28:23.954Z,11.30
2022-11-01T20:30:51.820Z,11.40
2022-11-01T20:33:20.276Z,11.40
2022-11-01T20:35:49.099Z,11.40
2022-11-01T20:38:17.815Z,11.40
2022-11-01T20:40:45.627Z,11.40
2022-11-01T20:43:13.618Z,11.40
2022-11-01T20:45:42.366Z,11.40
2022-11-01T20:48:10.434Z,11.40
2022-11-01T20:50:38.460Z,11.40
2022-11-01T20:53:09.125Z,11.40
2022-11-01T20:55:39.798Z,11.40
2022-11-01T20:58:07.976Z,11.40
2022-11-01T21:00:36.601Z,11.40
2022-11-01T21:03:16.397Z,11.40
2022-11-01T21:05:46.283Z,11.40
2022-11-01T21:08:25.510Z,11.40
2022-11-01T21:10:59.787Z,11.40
2022-11-01T21:13:32.362Z,11.50
2022-11-01T21:16:04.464Z,11.40
2022-11-01T21:18:37.859Z,11.40
2022-11-01T21:21:15.075Z,11.40
2022-11-01T21:23:46.460Z,11.40
2022-11-01T21:26:26.911Z,11.50
2022-11-01T21:28:58.662Z,11.50
2022-11-01T21:31:27.721Z,11.50
2022-11-01T21:34:16.917Z,11.50
2022-11-01T21:36:48.847Z,11.50
2022-11-01T21:39:22.444Z,11.50
2022-11-01T21:42:03.994Z,11.50
2022-11-01T21:44:50.814Z,11.50
2022-11-01T21:47:19.956Z,11.60
2022-11-01T21:49:48.582Z,11.60
2022-11-01T21:52:21.522Z,11.60
2022-11-01T21:54:50.080Z,11.60
2022-11-01T21:57:17.963Z,11.60
2022-11-01T21:59:46.067Z,11.60
2022-11-01T22:02:15.053Z,11.60
2022-11-01T22:04:44.299Z,11.60
2022-11-01T22:07:12.104Z,11.60
2022-11-01T22:09:40.546Z,11.60
2022-11-01T22:12:08.630Z,11.60
2022-11-01T22:14:37.636Z,11.60
2022-11-01T22:17:05.352Z,11.70
2022-11-01T22:19:33.360Z,11.70
2022-11-01T22:22:01.298Z,11.70
2022-11-01T22:24:29.874Z,11.70
2022-11-01T22:26:57.584Z,11.70
2022-11-01T22:29:25.619Z,11.70
2022-11-01T22:31:53.347Z,11.70
2022-11-01T22:34:21.689Z,11.70
2022-11-01T22:36:49.383Z,11.70
2022-11-01T22:39:22.943Z,11.80
2022-11-01T22:41:50.772Z,11.70
2022-11-01T22:44:31.700Z,11.70
2022-11-01T22:47:01.961Z,11.70
2022-11-01T22:49:31.946Z,11.80
2022-11-01T22:52:02.514Z,11.80
2022-11-01T22:54:38.330Z,11.80
2022-11-01T22:57:09.005Z,11.80
2022-11-01T22:59:47.141Z,11.80
2022-11-01T23:02:21.381Z,11.80
2022-11-01T23:04:50.034Z,11.70
2022-11-01T23:07:32.107Z,11.70
2022-11-01T23:10:06.513Z,11.70
2022-11-01T23:12:55.459Z,11.80
2022-11-01T23:15:28.340Z,11.80
2022-11-01T23:18:20.800Z,11.80
2022-11-01T23:20:56.339Z,11.80
2022-11-01T23:23:24.720Z,11.80
2022-11-01T23:25:55.331Z,11.80
2022-11-01T23:28:24.364Z,11.80
2022-11-01T23:30:52.610Z,11.80
2022-11-01T23:33:22.192Z,11.80
2022-11-01T23:35:54.245Z,11.80
2022-11-01T23:38:31.573Z,11.80
2022-11-01T23:40:59.564Z,11.80
2022-11-01T23:43:41.606Z,11.80
2022-11-01T23:46:12.507Z,11.80
2022-11-01T23:48:44.608Z,11.80
2022-11-01T23:51:19.134Z,11.80
2022-11-01T23:53:50.945Z,11.80
2022-11-01T23:56:23.167Z,11.90
2022-11-01T23:59:02.135Z,11.80
